• Join FlightAware (Why Join?)
  • Login
  • US Flag 
02:51AM EDT


 

Airport Tracker/Info


-or-


 

Live Flight TrackerFlight Track Log ✈ AWE3327 ✈ 27-Apr-2013 ✈ KDTW - KDCA

Flight Track Log - Related Links

Times and Time Zones

All times are in EDT time to prevent confusion due to time zone crossing. See the AWE3327 flight status page for this flight to view local times or setup timezone preferences in your user account.

Time Position Orientation Groundspeed Altitude Reporting Facility
EDT Latitude Longitude Course Direction KTS MPH feet Rate Location/Type
06:35AM 42.2036 -83.3556 90° East 147 169 1,200  Level Cleveland Center
06:36AM 42.1556 -83.3647 188° South 198 228 3,400 2,160 Climbing Cleveland Center
06:37AM 42.1438 -82.9213 98° East  Level FlightAware Approximate
06:37AM 42.0947 -83.3814 191° South 241 277 5,800  Level Cleveland Center
06:37AM 42.0511 -83.3767 175° South 255 293 7,600 2,760 Climbing Cleveland Center
06:38AM 42.1235 -82.7774 109° East  Level FlightAware Approximate
06:38AM 42.0367 -83.2783 101° East 269 310 10,400  Level Cleveland Center
06:39AM 42.1037 -82.6333 98° East  Level FlightAware Approximate
06:39AM 42.0456 -83.1639 84° East 273 314 12,300  Level Cleveland Center
06:40AM 42.0833 -82.4905 90° East  Level FlightAware Approximate
06:40AM 42.0525 -83.0383 86° East 297 342 14,500  Level Cleveland Center
06:41AM 42.0614 -82.9100 85° East 326 375 16,700 1,800 Climbing Cleveland Center
06:42AM 42.0683 -82.7733 86° East 348 400 18,200 1,680 Climbing Cleveland Center
06:43AM 42.0769 -82.6364 85° East 358 412 20,100 1,680 Climbing Cleveland Center
06:44AM 42.0858 -82.4942 85° East 364 419 21,600 1,440 Climbing Cleveland Center
06:45AM 42.0672 -82.3508 100° East 380 437 23,000 1,320 Climbing Cleveland Center
06:46AM 42.0425 -82.1992 102° East 393 452 24,300 1,320 Climbing Cleveland Center
06:47AM 42.0028 -82.0528 110° East 405 466 25,700 1,260 Climbing Cleveland Center
06:48AM 41.9058 -81.9558 143° Southeast 416 479 26,900 1,260 Climbing Cleveland Center
06:49AM 41.8047 -81.8589 144° Southeast 435 501 28,300 1,380 Climbing Cleveland Center
06:50AM 41.7017 -81.7594 144° Southeast 452 520 29,700 1,200 Climbing Cleveland Center
06:51AM 41.5983 -81.6633 145° Southeast 459 528 30,700 600 Climbing Cleveland Center
06:52AM 41.4822 -81.5919 155° Southeast 459 528 31,000 120 Climbing Cleveland Center
06:53AM 41.3828 -81.5350 157° South 454 522 31,000  Level Cleveland Center
06:54AM 41.2747 -81.4783 158° South 431 496 31,000  Level Cleveland Center
06:55AM 41.1647 -81.4189 158° South 431 496 31,000  Level Cleveland Center
06:56AM 41.0422 -81.3539 158° South 431 496 31,000  Level Cleveland Center
06:57AM 40.9322 -81.2978 159° South 426 490 31,000  Level Cleveland Center
06:58AM 40.8219 -81.2389 158° South 426 490 31,000  Level Cleveland Center
06:59AM 40.7158 -81.1831 158° South 431 496 31,000  Level Cleveland Center
07:00AM 40.6058 -81.1244 158° South 433 498 31,000  Level Cleveland Center
07:01AM 40.5100 -81.0719 157° South 428 493 31,000  Level Cleveland Center
07:02AM 40.4019 -81.0139 158° South 428 493 31,000  Level Cleveland Center
07:03AM 40.2917 -80.9561 158° South 428 493 31,000  Level Cleveland Center
07:04AM 40.1833 -80.9011 159° South 428 493 31,000  Level Cleveland Center
07:05AM 40.0753 -80.8461 159° South 428 493 31,000  Level Cleveland Center
07:06AM 39.9650 -80.7403 144° Southeast 443 510 31,000  Level Cleveland Center
07:07AM 39.8794 -80.6208 133° Southeast 443 510 31,000  Level Cleveland Center
07:09AM 39.7258 -80.4078 133° Southeast 476 548 31,000  Level Washington Center
07:10AM 39.6347 -80.2883 135° Southeast 471 542 31,000  Level Washington Center
07:11AM 39.5497 -80.1669 132° Southeast 471 542 31,000  Level Washington Center
07:12AM 39.4603 -80.0483 134° Southeast 466 536 31,000  Level Washington Center
07:13AM 39.3689 -79.9247 134° Southeast 466 536 31,000  Level Washington Center
07:14AM 39.2989 -79.7864 123° Southeast 471 542 31,000  Level Washington Center
07:15AM 39.2817 -79.6192 98° East 447 514 31,000 -300 Level Washington Center
07:16AM 39.2686 -79.4494 96° East 455 524 30,500 -1,380 Descending Washington Center
07:17AM 39.2533 -79.2717 96° East 474 545 28,300 -2,100 Descending Washington Center
07:18AM 39.2353 -79.1019 98° East 488 562 26,300 -2,040 Descending Washington Center
07:19AM 39.2211 -78.9433 97° East 473 544 24,300 -2,040 Descending Washington Center
07:20AM 39.2067 -78.7872 97° East 454 522 22,400 -1,980 Descending Washington Center
07:21AM 39.1917 -78.6392 97° East 429 494 20,500 -1,800 Descending Washington Center
07:22AM 39.1783 -78.4994 97° East 413 475 18,800 -1,800 Descending Washington Center
07:23AM 39.1631 -78.3622 98° East 399 459 16,900 -1,440 Descending Washington Center
07:24AM 39.1325 -78.2353 107° East 384 442 15,900 -960 Descending Washington Center
07:25AM 39.1017 -78.1139 108° East 364 419 15,000 -1,080 Descending Washington Center
07:26AM 39.0708 -77.9953 108° East 352 405 13,800 -1,200 Descending Washington Center
07:27AM 39.0417 -77.8819 108° East 340 391 12,600 -1,440 Descending Washington Center
07:28AM 39.0106 -77.7661 109° East 321 369 11,000 -840 Descending Washington Center
07:29AM 38.9872 -77.6719 108° East 313 360 11,000 -660 Level Washington Center
07:30AM 38.9667 -77.5667 104° East 288 331 9,800 -1,380 Descending Potomac TRACON
07:31AM 38.9333 -77.4833 117° Southeast 289 333 8,500 -1,320 Descending Potomac TRACON
07:32AM 38.8833 -77.4000 128° Southeast 291 335 7,300 -1,200 Descending Potomac TRACON
07:33AM 38.8500 -77.3000 113° Southeast 280 322 6,100 -900 Descending Potomac TRACON
07:34AM 38.8167 -77.2333 123° Southeast 275 316 5,700 -720 Descending Potomac TRACON
07:35AM 38.7833 -77.1667 123° Southeast 248 285 4,900 -1,080 Descending Potomac TRACON
07:36AM 38.7500 -77.1167 131° Southeast 218 251 3,800 -1,200 Descending Potomac TRACON
07:37AM 38.7167 -77.0667 131° Southeast 207 238 2,600 -1,140 Descending Potomac TRACON